sensor_id;sensor_type;location;lat;lon;timestamp;pressure;altitude;pressure_sealevel;temperature;humidity
33151;BME280;19508;42.578;23.416;2022-11-20T00:02:24;92961.53;;;18.49;52.80
33151;BME280;19508;42.578;23.416;2022-11-20T00:04:50;92975.63;;;18.68;52.42
33151;BME280;19508;42.578;23.416;2022-11-20T00:07:15;92977.00;;;18.92;51.78
33151;BME280;19508;42.578;23.416;2022-11-20T00:09:40;92970.25;;;18.98;51.58
33151;BME280;19508;42.578;23.416;2022-11-20T00:12:06;92968.09;;;19.12;51.15
33151;BME280;19508;42.578;23.416;2022-11-20T00:14:31;92974.91;;;19.06;50.81
33151;BME280;19508;42.578;23.416;2022-11-20T00:16:58;92986.06;;;19.13;50.34
33151;BME280;19508;42.578;23.416;2022-11-20T00:19:24;92975.84;;;19.39;49.52
33151;BME280;19508;42.578;23.416;2022-11-20T00:21:49;92965.69;;;19.19;50.54
33151;BME280;19508;42.578;23.416;2022-11-20T00:24:16;92953.94;;;19.27;50.02
33151;BME280;19508;42.578;23.416;2022-11-20T00:26:42;92949.38;;;19.02;50.58
33151;BME280;19508;42.578;23.416;2022-11-20T00:29:11;92948.63;;;19.22;49.94
33151;BME280;19508;42.578;23.416;2022-11-20T00:31:36;92947.34;;;19.28;49.19
33151;BME280;19508;42.578;23.416;2022-11-20T00:34:03;92947.75;;;19.39;49.67
33151;BME280;19508;42.578;23.416;2022-11-20T00:36:32;92947.28;;;19.37;49.11
33151;BME280;19508;42.578;23.416;2022-11-20T00:38:58;92948.56;;;19.39;49.02
33151;BME280;19508;42.578;23.416;2022-11-20T00:41:24;92947.81;;;19.30;48.85
33151;BME280;19508;42.578;23.416;2022-11-20T00:43:54;92945.19;;;19.42;48.71
33151;BME280;19508;42.578;23.416;2022-11-20T00:46:26;92942.19;;;19.65;48.54
33151;BME280;19508;42.578;23.416;2022-11-20T00:48:52;92955.66;;;19.70;48.02
33151;BME280;19508;42.578;23.416;2022-11-20T00:51:19;92945.69;;;19.74;47.83
33151;BME280;19508;42.578;23.416;2022-11-20T00:53:45;92975.31;;;19.55;48.62
33151;BME280;19508;42.578;23.416;2022-11-20T00:56:13;92968.63;;;19.43;48.60
33151;BME280;19508;42.578;23.416;2022-11-20T00:58:40;92967.97;;;19.47;48.47
33151;BME280;19508;42.578;23.416;2022-11-20T01:01:11;92976.63;;;19.57;48.15
33151;BME280;19508;42.578;23.416;2022-11-20T01:03:40;92984.00;;;19.57;48.23
33151;BME280;19508;42.578;23.416;2022-11-20T01:06:11;92964.38;;;19.25;48.19
33151;BME280;19508;42.578;23.416;2022-11-20T01:08:38;92967.09;;;19.55;47.37
33151;BME280;19508;42.578;23.416;2022-11-20T01:11:09;92962.88;;;19.75;47.31
33151;BME280;19508;42.578;23.416;2022-11-20T01:13:36;92955.66;;;19.40;48.21
33151;BME280;19508;42.578;23.416;2022-11-20T01:16:07;92959.00;;;19.37;48.31
33151;BME280;19508;42.578;23.416;2022-11-20T01:18:34;92961.94;;;19.32;48.57
33151;BME280;19508;42.578;23.416;2022-11-20T01:21:07;92954.59;;;19.54;47.62
33151;BME280;19508;42.578;23.416;2022-11-20T01:23:35;92932.22;;;19.31;47.24
33151;BME280;19508;42.578;23.416;2022-11-20T01:26:03;92963.91;;;19.53;47.29
33151;BME280;19508;42.578;23.416;2022-11-20T01:28:30;92937.84;;;19.64;46.74
33151;BME280;19508;42.578;23.416;2022-11-20T01:30:56;92933.06;;;19.61;47.28
33151;BME280;19508;42.578;23.416;2022-11-20T01:33:22;92918.47;;;19.48;47.42
33151;BME280;19508;42.578;23.416;2022-11-20T01:35:51;92906.59;;;19.53;46.49
33151;BME280;19508;42.578;23.416;2022-11-20T01:38:18;92904.91;;;19.69;46.65
33151;BME280;19508;42.578;23.416;2022-11-20T01:40:45;92891.53;;;19.47;46.87
33151;BME280;19508;42.578;23.416;2022-11-20T01:43:17;92903.19;;;19.56;47.04
33151;BME280;19508;42.578;23.416;2022-11-20T01:48:51;92907.09;;;19.46;47.44
33151;BME280;19508;42.578;23.416;2022-11-20T01:53:51;92872.91;;;19.19;47.67
33151;BME280;19508;42.578;23.416;2022-11-20T01:56:18;92896.06;;;19.42;47.62
33151;BME280;19508;42.578;23.416;2022-11-20T01:58:51;92903.16;;;19.35;47.31
33151;BME280;19508;42.578;23.416;2022-11-20T02:01:20;92906.13;;;19.21;47.94
33151;BME280;19508;42.578;23.416;2022-11-20T02:03:47;92896.56;;;19.06;48.49
33151;BME280;19508;42.578;23.416;2022-11-20T02:06:14;92916.44;;;18.69;49.67
33151;BME280;19508;42.578;23.416;2022-11-20T02:08:42;92901.19;;;18.76;49.61
33151;BME280;19508;42.578;23.416;2022-11-20T02:11:08;92910.94;;;18.86;48.05
33151;BME280;19508;42.578;23.416;2022-11-20T02:13:34;92922.56;;;19.04;48.02
33151;BME280;19508;42.578;23.416;2022-11-20T02:16:23;92923.16;;;19.18;47.42
33151;BME280;19508;42.578;23.416;2022-11-20T02:18:50;92904.13;;;19.30;47.49
33151;BME280;19508;42.578;23.416;2022-11-20T02:24:21;92922.69;;;19.45;46.86
33151;BME280;19508;42.578;23.416;2022-11-20T02:27:08;92918.38;;;19.15;48.31
33151;BME280;19508;42.578;23.416;2022-11-20T02:32:25;92941.63;;;19.12;47.47
33151;BME280;19508;42.578;23.416;2022-11-20T02:34:51;92944.97;;;19.18;46.94
33151;BME280;19508;42.578;23.416;2022-11-20T02:37:18;92933.59;;;19.45;47.05
33151;BME280;19508;42.578;23.416;2022-11-20T02:39:46;92934.41;;;19.46;46.83
33151;BME280;19508;42.578;23.416;2022-11-20T02:42:12;92919.22;;;19.36;47.07
33151;BME280;19508;42.578;23.416;2022-11-20T02:44:37;92933.09;;;19.52;46.66
33151;BME280;19508;42.578;23.416;2022-11-20T02:47:03;92927.50;;;19.49;46.81
33151;BME280;19508;42.578;23.416;2022-11-20T02:49:28;92925.81;;;19.65;46.51
33151;BME280;19508;42.578;23.416;2022-11-20T02:51:53;92929.47;;;19.69;46.50
33151;BME280;19508;42.578;23.416;2022-11-20T02:54:19;92953.28;;;19.89;46.12
33151;BME280;19508;42.578;23.416;2022-11-20T02:56:44;92938.59;;;19.73;46.29
33151;BME280;19508;42.578;23.416;2022-11-20T02:59:10;92946.53;;;19.66;46.32
33151;BME280;19508;42.578;23.416;2022-11-20T03:01:35;92960.44;;;19.73;46.77
33151;BME280;19508;42.578;23.416;2022-11-20T03:04:01;92961.84;;;19.79;46.61
33151;BME280;19508;42.578;23.416;2022-11-20T03:06:27;92980.63;;;19.60;47.15
33151;BME280;19508;42.578;23.416;2022-11-20T03:08:53;92968.25;;;19.54;47.32
33151;BME280;19508;42.578;23.416;2022-11-20T03:11:19;92976.84;;;19.73;47.27
33151;BME280;19508;42.578;23.416;2022-11-20T03:13:44;92952.25;;;19.43;47.65
33151;BME280;19508;42.578;23.416;2022-11-20T03:16:13;92974.88;;;19.44;47.95
33151;BME280;19508;42.578;23.416;2022-11-20T03:18:41;92959.94;;;19.50;47.22
33151;BME280;19508;42.578;23.416;2022-11-20T03:21:07;92985.00;;;19.43;47.62
33151;BME280;19508;42.578;23.416;2022-11-20T03:23:34;92983.78;;;19.32;48.51
33151;BME280;19508;42.578;23.416;2022-11-20T03:28:34;92982.47;;;19.30;49.27
33151;BME280;19508;42.578;23.416;2022-11-20T03:31:14;92971.47;;;19.17;49.07
33151;BME280;19508;42.578;23.416;2022-11-20T03:33:41;92982.75;;;19.07;49.55
33151;BME280;19508;42.578;23.416;2022-11-20T03:36:11;93002.19;;;19.06;49.36
33151;BME280;19508;42.578;23.416;2022-11-20T03:38:37;92988.28;;;19.28;48.60
33151;BME280;19508;42.578;23.416;2022-11-20T03:41:13;92998.59;;;19.14;49.65
33151;BME280;19508;42.578;23.416;2022-11-20T03:43:39;93005.69;;;19.15;49.32
33151;BME280;19508;42.578;23.416;2022-11-20T03:46:06;93002.44;;;19.13;49.12
33151;BME280;19508;42.578;23.416;2022-11-20T03:48:33;93008.50;;;19.27;49.36
33151;BME280;19508;42.578;23.416;2022-11-20T03:53:33;92966.16;;;19.21;48.78
33151;BME280;19508;42.578;23.416;2022-11-20T03:55:59;92974.59;;;19.37;48.28
33151;BME280;19508;42.578;23.416;2022-11-20T03:58:24;92986.38;;;19.20;49.23
33151;BME280;19508;42.578;23.416;2022-11-20T04:00:50;92985.81;;;19.06;49.43
33151;BME280;19508;42.578;23.416;2022-11-20T04:03:15;92976.50;;;19.07;49.55
33151;BME280;19508;42.578;23.416;2022-11-20T04:05:41;92989.22;;;18.85;51.00
33151;BME280;19508;42.578;23.416;2022-11-20T04:08:06;92985.56;;;18.81;50.61
33151;BME280;19508;42.578;23.416;2022-11-20T04:10:32;93018.75;;;18.49;51.90
33151;BME280;19508;42.578;23.416;2022-11-20T04:12:57;93001.94;;;18.47;51.19
33151;BME280;19508;42.578;23.416;2022-11-20T04:15:22;93009.59;;;18.45;51.08
33151;BME280;19508;42.578;23.416;2022-11-20T04:17:48;93007.66;;;18.54;51.50
33151;BME280;19508;42.578;23.416;2022-11-20T04:20:14;92997.44;;;18.68;50.92
33151;BME280;19508;42.578;23.416;2022-11-20T04:22:39;93006.38;;;18.60;51.60
33151;BME280;19508;42.578;23.416;2022-11-20T04:25:05;93024.34;;;18.61;51.17
33151;BME280;19508;42.578;23.416;2022-11-20T04:27:31;93015.84;;;18.80;51.12
33151;BME280;19508;42.578;23.416;2022-11-20T04:29:57;93020.81;;;18.52;55.76
33151;BME280;19508;42.578;23.416;2022-11-20T04:32:23;93032.16;;;17.85;59.30
33151;BME280;19508;42.578;23.416;2022-11-20T04:34:48;93044.03;;;17.49;59.89
33151;BME280;19508;42.578;23.416;2022-11-20T04:37:14;93025.72;;;17.32;58.91
33151;BME280;19508;42.578;23.416;2022-11-20T04:39:39;93012.59;;;17.34;61.00
33151;BME280;19508;42.578;23.416;2022-11-20T04:42:05;93014.13;;;17.09;60.85
33151;BME280;19508;42.578;23.416;2022-11-20T04:44:49;93015.94;;;17.23;59.69
33151;BME280;19508;42.578;23.416;2022-11-20T04:47:14;93022.84;;;17.29;59.41
33151;BME280;19508;42.578;23.416;2022-11-20T04:49:39;93021.97;;;17.59;59.01
33151;BME280;19508;42.578;23.416;2022-11-20T04:52:05;93004.56;;;17.69;58.81
33151;BME280;19508;42.578;23.416;2022-11-20T04:54:30;92989.28;;;17.42;58.47
33151;BME280;19508;42.578;23.416;2022-11-20T04:56:56;93011.91;;;17.68;57.57
33151;BME280;19508;42.578;23.416;2022-11-20T04:59:21;92998.53;;;17.81;56.89
33151;BME280;19508;42.578;23.416;2022-11-20T05:01:47;93028.31;;;17.86;57.85
33151;BME280;19508;42.578;23.416;2022-11-20T05:04:12;93037.44;;;17.81;59.50
33151;BME280;19508;42.578;23.416;2022-11-20T05:06:38;93047.00;;;17.30;63.60
33151;BME280;19508;42.578;23.416;2022-11-20T05:09:03;93061.13;;;17.01;66.47
33151;BME280;19508;42.578;23.416;2022-11-20T05:11:28;93015.72;;;16.34;69.12
33151;BME280;19508;42.578;23.416;2022-11-20T05:13:54;93032.69;;;16.18;71.61
33151;BME280;19508;42.578;23.416;2022-11-20T05:16:22;93037.09;;;16.14;73.06
33151;BME280;19508;42.578;23.416;2022-11-20T05:18:48;93034.38;;;15.91;73.99
33151;BME280;19508;42.578;23.416;2022-11-20T05:21:13;93033.66;;;15.86;73.89
33151;BME280;19508;42.578;23.416;2022-11-20T05:23:39;93032.69;;;15.68;74.80
33151;BME280;19508;42.578;23.416;2022-11-20T05:26:08;93027.13;;;15.87;74.77
33151;BME280;19508;42.578;23.416;2022-11-20T05:28:34;93023.94;;;15.71;76.18
33151;BME280;19508;42.578;23.416;2022-11-20T05:31:06;93017.63;;;15.62;76.52
33151;BME280;19508;42.578;23.416;2022-11-20T05:33:36;93018.50;;;15.71;76.19
33151;BME280;19508;42.578;23.416;2022-11-20T05:36:03;93032.47;;;15.78;75.61
33151;BME280;19508;42.578;23.416;2022-11-20T05:38:28;93023.75;;;15.81;75.35
33151;BME280;19508;42.578;23.416;2022-11-20T05:40:54;93023.44;;;15.83;75.13
33151;BME280;19508;42.578;23.416;2022-11-20T05:43:19;93020.09;;;15.86;74.92
33151;BME280;19508;42.578;23.416;2022-11-20T05:45:52;93024.91;;;15.89;74.95
33151;BME280;19508;42.578;23.416;2022-11-20T05:48:18;93031.19;;;15.62;75.28
33151;BME280;19508;42.578;23.416;2022-11-20T05:50:44;93036.06;;;15.87;73.78
33151;BME280;19508;42.578;23.416;2022-11-20T05:53:09;93052.03;;;16.02;73.16
33151;BME280;19508;42.578;23.416;2022-11-20T05:55:35;93037.88;;;15.92;72.86
33151;BME280;19508;42.578;23.416;2022-11-20T05:58:00;93030.69;;;16.10;71.89
33151;BME280;19508;42.578;23.416;2022-11-20T06:00:26;93028.84;;;16.19;71.78
33151;BME280;19508;42.578;23.416;2022-11-20T06:02:51;93027.00;;;16.28;70.98
33151;BME280;19508;42.578;23.416;2022-11-20T06:05:16;93025.03;;;16.20;71.76
33151;BME280;19508;42.578;23.416;2022-11-20T06:07:42;93019.09;;;16.18;71.92
33151;BME280;19508;42.578;23.416;2022-11-20T06:10:08;92998.03;;;16.23;71.30
33151;BME280;19508;42.578;23.416;2022-11-20T06:12:33;93002.66;;;16.23;70.98
33151;BME280;19508;42.578;23.416;2022-11-20T06:14:59;93011.09;;;16.35;70.68
33151;BME280;19508;42.578;23.416;2022-11-20T06:17:25;93017.06;;;16.46;70.24
33151;BME280;19508;42.578;23.416;2022-11-20T06:19:50;92998.09;;;16.54;70.17
33151;BME280;19508;42.578;23.416;2022-11-20T06:22:15;93004.44;;;16.41;70.45
33151;BME280;19508;42.578;23.416;2022-11-20T06:24:41;93019.59;;;16.64;70.10
33151;BME280;19508;42.578;23.416;2022-11-20T06:27:06;93011.25;;;16.61;69.81
33151;BME280;19508;42.578;23.416;2022-11-20T06:29:32;93024.53;;;16.62;69.39
33151;BME280;19508;42.578;23.416;2022-11-20T06:32:00;93018.38;;;16.71;69.18
33151;BME280;19508;42.578;23.416;2022-11-20T06:34:25;93021.41;;;16.69;68.65
33151;BME280;19508;42.578;23.416;2022-11-20T06:36:51;93030.84;;;16.72;69.01
33151;BME280;19508;42.578;23.416;2022-11-20T06:39:16;93034.44;;;16.81;68.85
33151;BME280;19508;42.578;23.416;2022-11-20T06:41:42;93025.84;;;16.87;68.60
33151;BME280;19508;42.578;23.416;2022-11-20T06:44:07;93021.69;;;16.90;68.38
33151;BME280;19508;42.578;23.416;2022-11-20T06:46:33;93026.84;;;17.00;67.77
33151;BME280;19508;42.578;23.416;2022-11-20T06:48:58;93021.22;;;16.88;67.24
33151;BME280;19508;42.578;23.416;2022-11-20T06:51:24;93029.38;;;17.19;67.05
33151;BME280;19508;42.578;23.416;2022-11-20T06:53:49;93025.16;;;17.44;66.55
33151;BME280;19508;42.578;23.416;2022-11-20T06:56:15;93026.59;;;17.50;65.31
33151;BME280;19508;42.578;23.416;2022-11-20T06:58:40;93041.50;;;17.53;64.73
33151;BME280;19508;42.578;23.416;2022-11-20T07:01:08;93039.50;;;17.75;64.28
33151;BME280;19508;42.578;23.416;2022-11-20T07:03:35;93047.41;;;18.03;63.26
33151;BME280;19508;42.578;23.416;2022-11-20T07:06:01;93045.81;;;18.02;62.49
33151;BME280;19508;42.578;23.416;2022-11-20T07:08:27;93044.56;;;18.43;62.38
33151;BME280;19508;42.578;23.416;2022-11-20T07:10:57;93034.63;;;18.55;61.77
33151;BME280;19508;42.578;23.416;2022-11-20T07:13:23;93041.38;;;18.67;61.31
33151;BME280;19508;42.578;23.416;2022-11-20T07:15:48;93045.34;;;18.86;60.07
33151;BME280;19508;42.578;23.416;2022-11-20T07:18:13;93050.63;;;19.09;59.33
33151;BME280;19508;42.578;23.416;2022-11-20T07:20:39;93049.34;;;19.15;58.39
33151;BME280;19508;42.578;23.416;2022-11-20T07:23:04;93057.16;;;19.25;58.75
33151;BME280;19508;42.578;23.416;2022-11-20T07:25:30;93057.75;;;19.39;58.08
33151;BME280;19508;42.578;23.416;2022-11-20T07:27:59;93046.78;;;19.48;57.22
33151;BME280;19508;42.578;23.416;2022-11-20T07:30:26;93044.25;;;19.43;57.52
33151;BME280;19508;42.578;23.416;2022-11-20T07:32:53;93048.75;;;19.39;55.82
33151;BME280;19508;42.578;23.416;2022-11-20T07:35:19;93034.13;;;19.43;56.41
33151;BME280;19508;42.578;23.416;2022-11-20T07:37:45;93043.47;;;19.42;55.15
33151;BME280;19508;42.578;23.416;2022-11-20T07:40:12;93049.50;;;19.57;55.75
33151;BME280;19508;42.578;23.416;2022-11-20T07:42:37;93054.69;;;19.50;54.48
33151;BME280;19508;42.578;23.416;2022-11-20T07:45:03;93049.50;;;19.57;55.43
33151;BME280;19508;42.578;23.416;2022-11-20T07:47:29;93045.88;;;19.35;55.53
33151;BME280;19508;42.578;23.416;2022-11-20T07:49:59;93037.78;;;19.48;55.47
33151;BME280;19508;42.578;23.416;2022-11-20T07:52:25;93032.38;;;19.39;55.66
33151;BME280;19508;42.578;23.416;2022-11-20T07:54:50;93035.03;;;19.65;55.11
33151;BME280;19508;42.578;23.416;2022-11-20T07:57:15;93026.56;;;19.49;55.59
33151;BME280;19508;42.578;23.416;2022-11-20T07:59:41;93037.66;;;19.44;56.06
33151;BME280;19508;42.578;23.416;2022-11-20T08:02:10;93039.59;;;19.43;55.27
33151;BME280;19508;42.578;23.416;2022-11-20T08:04:36;93038.16;;;19.37;56.42
33151;BME280;19508;42.578;23.416;2022-11-20T08:07:01;93039.72;;;19.09;57.45
33151;BME280;19508;42.578;23.416;2022-11-20T08:09:27;93026.16;;;18.66;59.06
33151;BME280;19508;42.578;23.416;2022-11-20T08:11:54;93041.22;;;18.63;59.07
33151;BME280;19508;42.578;23.416;2022-11-20T08:14:38;93030.16;;;18.68;59.29
33151;BME280;19508;42.578;23.416;2022-11-20T08:17:04;93037.38;;;18.73;58.14
33151;BME280;19508;42.578;23.416;2022-11-20T08:19:32;93035.25;;;18.78;57.61
33151;BME280;19508;42.578;23.416;2022-11-20T08:21:58;93026.84;;;19.18;56.62
33151;BME280;19508;42.578;23.416;2022-11-20T08:24:23;93033.31;;;18.96;57.07
33151;BME280;19508;42.578;23.416;2022-11-20T08:26:51;93028.06;;;19.29;57.20
33151;BME280;19508;42.578;23.416;2022-11-20T08:29:17;93010.09;;;19.28;56.27
33151;BME280;19508;42.578;23.416;2022-11-20T08:31:43;93022.03;;;19.24;57.72
33151;BME280;19508;42.578;23.416;2022-11-20T08:34:08;93034.72;;;19.66;55.08
33151;BME280;19508;42.578;23.416;2022-11-20T08:36:34;93031.00;;;20.00;53.83
33151;BME280;19508;42.578;23.416;2022-11-20T08:39:00;93033.81;;;20.34;54.89
33151;BME280;19508;42.578;23.416;2022-11-20T08:41:26;93042.13;;;20.46;53.43
33151;BME280;19508;42.578;23.416;2022-11-20T08:44:06;93044.78;;;20.54;53.34
33151;BME280;19508;42.578;23.416;2022-11-20T08:46:35;93061.72;;;20.69;52.57
33151;BME280;19508;42.578;23.416;2022-11-20T08:49:08;93051.94;;;20.38;52.81
33151;BME280;19508;42.578;23.416;2022-11-20T08:51:34;93068.47;;;20.21;53.23
33151;BME280;19508;42.578;23.416;2022-11-20T08:54:00;93070.47;;;20.12;53.64
33151;BME280;19508;42.578;23.416;2022-11-20T08:56:29;93067.44;;;20.05;52.84
33151;BME280;19508;42.578;23.416;2022-11-20T08:58:55;93069.03;;;20.06;53.50
33151;BME280;19508;42.578;23.416;2022-11-20T09:01:22;93065.47;;;19.84;54.80
33151;BME280;19508;42.578;23.416;2022-11-20T09:03:48;93067.91;;;20.07;53.90
33151;BME280;19508;42.578;23.416;2022-11-20T09:06:14;93074.03;;;20.04;53.82
33151;BME280;19508;42.578;23.416;2022-11-20T09:08:39;93071.06;;;19.88;55.57
33151;BME280;19508;42.578;23.416;2022-11-20T09:11:06;93076.03;;;19.94;55.45
33151;BME280;19508;42.578;23.416;2022-11-20T09:13:32;93078.84;;;20.36;54.20
33151;BME280;19508;42.578;23.416;2022-11-20T09:16:00;93078.38;;;20.05;53.65
33151;BME280;19508;42.578;23.416;2022-11-20T09:18:27;93093.28;;;19.78;55.19
33151;BME280;19508;42.578;23.416;2022-11-20T09:21:01;93077.75;;;19.99;56.66
33151;BME280;19508;42.578;23.416;2022-11-20T09:23:30;93070.72;;;19.60;56.92
33151;BME280;19508;42.578;23.416;2022-11-20T09:25:56;93064.72;;;19.75;57.02
33151;BME280;19508;42.578;23.416;2022-11-20T09:28:25;93058.41;;;19.83;55.97
33151;BME280;19508;42.578;23.416;2022-11-20T09:30:51;93066.91;;;19.82;55.63
33151;BME280;19508;42.578;23.416;2022-11-20T09:33:17;93066.91;;;19.82;57.10
33151;BME280;19508;42.578;23.416;2022-11-20T09:35:43;93072.44;;;19.64;56.86
33151;BME280;19508;42.578;23.416;2022-11-20T09:38:09;93072.91;;;19.75;56.77
33151;BME280;19508;42.578;23.416;2022-11-20T09:40:39;93075.72;;;19.87;57.11
33151;BME280;19508;42.578;23.416;2022-11-20T09:43:27;93065.84;;;19.74;57.39
33151;BME280;19508;42.578;23.416;2022-11-20T09:46:14;93058.91;;;19.77;56.70
33151;BME280;19508;42.578;23.416;2022-11-20T09:51:46;93065.47;;;19.84;56.28
33151;BME280;19508;42.578;23.416;2022-11-20T09:54:19;93061.69;;;19.68;56.77
33151;BME280;19508;42.578;23.416;2022-11-20T09:56:49;93056.41;;;19.63;56.94
33151;BME280;19508;42.578;23.416;2022-11-20T09:59:40;93053.13;;;19.78;57.80
33151;BME280;19508;42.578;23.416;2022-11-20T10:02:26;93047.75;;;19.52;57.60
33151;BME280;19508;42.578;23.416;2022-11-20T10:05:03;93047.31;;;19.41;59.44
33151;BME280;19508;42.578;23.416;2022-11-20T10:07:41;93034.81;;;19.40;59.09
33151;BME280;19508;42.578;23.416;2022-11-20T10:15:41;92996.28;;;18.60;64.48
33151;BME280;19508;42.578;23.416;2022-11-20T10:18:15;93015.84;;;18.80;65.10
33151;BME280;19508;42.578;23.416;2022-11-20T10:20:55;93013.44;;;18.78;64.76
33151;BME280;19508;42.578;23.416;2022-11-20T10:31:30;92982.00;;;18.90;62.56
33151;BME280;19508;42.578;23.416;2022-11-20T10:34:01;92993.34;;;19.38;61.40
33151;BME280;19508;42.578;23.416;2022-11-20T10:36:35;92991.91;;;19.79;60.82
33151;BME280;19508;42.578;23.416;2022-11-20T10:39:10;92992.75;;;20.21;58.60
33151;BME280;19508;42.578;23.416;2022-11-20T10:41:44;92999.72;;;20.61;55.26
33151;BME280;19508;42.578;23.416;2022-11-20T10:44:27;92983.69;;;20.50;54.65
33151;BME280;19508;42.578;23.416;2022-11-20T10:47:18;92976.59;;;21.03;53.27
33151;BME280;19508;42.578;23.416;2022-11-20T10:49:48;92972.84;;;20.75;53.84
33151;BME280;19508;42.578;23.416;2022-11-20T11:01:24;92988.47;;;20.12;54.06
33151;BME280;19508;42.578;23.416;2022-11-20T11:03:52;92988.09;;;20.01;54.93
33151;BME280;19508;42.578;23.416;2022-11-20T11:06:37;92989.28;;;20.33;54.77
33151;BME280;19508;42.578;23.416;2022-11-20T11:09:22;93007.94;;;20.10;53.80
33151;BME280;19508;42.578;23.416;2022-11-20T11:11:53;93016.22;;;20.22;53.94
33151;BME280;19508;42.578;23.416;2022-11-20T11:14:18;93027.34;;;20.17;54.53
33151;BME280;19508;42.578;23.416;2022-11-20T11:16:53;93030.06;;;19.67;58.00
33151;BME280;19508;42.578;23.416;2022-11-20T11:19:20;93032.75;;;19.20;61.10
33151;BME280;19508;42.578;23.416;2022-11-20T11:21:56;93061.88;;;18.64;63.07
33151;BME280;19508;42.578;23.416;2022-11-20T11:24:27;93070.06;;;18.21;64.99
33151;BME280;19508;42.578;23.416;2022-11-20T11:27:03;93071.78;;;17.60;63.13
33151;BME280;19508;42.578;23.416;2022-11-20T11:29:35;93078.94;;;16.85;66.86
33151;BME280;19508;42.578;23.416;2022-11-20T11:32:08;93082.56;;;16.80;70.66
33151;BME280;19508;42.578;23.416;2022-11-20T11:34:38;93096.31;;;16.61;74.44
33151;BME280;19508;42.578;23.416;2022-11-20T11:37:04;93127.41;;;16.33;78.97
33151;BME280;19508;42.578;23.416;2022-11-20T11:39:32;93173.31;;;16.07;79.40
33151;BME280;19508;42.578;23.416;2022-11-20T11:42:17;93170.09;;;15.77;79.95
33151;BME280;19508;42.578;23.416;2022-11-20T11:44:45;93150.50;;;15.34;73.36
33151;BME280;19508;42.578;23.416;2022-11-20T11:47:51;93161.66;;;14.49;72.89
33151;BME280;19508;42.578;23.416;2022-11-20T11:50:36;93126.84;;;13.99;74.13
33151;BME280;19508;42.578;23.416;2022-11-20T11:53:18;93130.94;;;13.97;74.04
33151;BME280;19508;42.578;23.416;2022-11-20T11:56:26;93098.31;;;13.69;76.24
33151;BME280;19508;42.578;23.416;2022-11-20T11:59:00;93101.22;;;13.73;75.95
33151;BME280;19508;42.578;23.416;2022-11-20T12:01:49;93090.88;;;13.56;75.07
33151;BME280;19508;42.578;23.416;2022-11-20T12:10:04;93100.13;;;13.50;79.21
33151;BME280;19508;42.578;23.416;2022-11-20T12:12:44;93099.16;;;13.41;79.57
33151;BME280;19508;42.578;23.416;2022-11-20T12:15:57;93103.00;;;13.59;79.96
33151;BME280;19508;42.578;23.416;2022-11-20T12:18:41;93098.13;;;13.61;81.76
33151;BME280;19508;42.578;23.416;2022-11-20T12:21:36;93094.22;;;13.48;84.28
33151;BME280;19508;42.578;23.416;2022-11-20T12:24:33;93072.09;;;13.65;85.03
33151;BME280;19508;42.578;23.416;2022-11-20T12:27:43;93081.44;;;13.77;85.59
33151;BME280;19508;42.578;23.416;2022-11-20T12:30:25;93095.81;;;13.73;85.82
33151;BME280;19508;42.578;23.416;2022-11-20T12:39:48;93093.59;;;13.56;85.06
33151;BME280;19508;42.578;23.416;2022-11-20T12:43:10;93070.19;;;13.46;87.40
33151;BME280;19508;42.578;23.416;2022-11-20T12:46:08;93030.38;;;13.52;87.34
33151;BME280;19508;42.578;23.416;2022-11-20T12:55:27;92971.88;;;14.45;85.44
33151;BME280;19508;42.578;23.416;2022-11-20T14:17:20;93012.47;;;14.91;77.67
33151;BME280;19508;42.578;23.416;2022-11-20T14:19:48;93018.66;;;14.78;78.09
33151;BME280;19508;42.578;23.416;2022-11-20T14:37:47;93003.69;;;14.34;80.27
33151;BME280;19508;42.578;23.416;2022-11-20T14:42:49;93021.34;;;14.32;81.56
33151;BME280;19508;42.578;23.416;2022-11-20T14:45:14;93017.91;;;14.26;81.66
33151;BME280;19508;42.578;23.416;2022-11-20T14:47:40;93012.88;;;14.20;81.92
33151;BME280;19508;42.578;23.416;2022-11-20T14:50:25;93002.84;;;14.01;82.30
33151;BME280;19508;42.578;23.416;2022-11-20T14:52:57;93001.13;;;13.92;82.72
33151;BME280;19508;42.578;23.416;2022-11-20T14:55:31;93018.81;;;14.03;83.32
33151;BME280;19508;42.578;23.416;2022-11-20T14:58:04;93000.75;;;13.98;82.85
33151;BME280;19508;42.578;23.416;2022-11-20T15:00:31;93005.72;;;13.91;83.19
33151;BME280;19508;42.578;23.416;2022-11-20T15:02:57;93009.75;;;13.94;83.47
33151;BME280;19508;42.578;23.416;2022-11-20T15:05:48;93027.44;;;14.05;82.55
33151;BME280;19508;42.578;23.416;2022-11-20T15:08:14;93021.75;;;13.88;82.34
33151;BME280;19508;42.578;23.416;2022-11-20T15:10:51;93036.72;;;13.99;82.25
33151;BME280;19508;42.578;23.416;2022-11-20T15:13:32;93056.06;;;14.11;82.04
33151;BME280;19508;42.578;23.416;2022-11-20T15:16:02;93046.84;;;14.12;82.10
33151;BME280;19508;42.578;23.416;2022-11-20T15:18:32;93054.59;;;14.19;82.60
33151;BME280;19508;42.578;23.416;2022-11-20T15:21:01;93054.59;;;14.19;81.54
33151;BME280;19508;42.578;23.416;2022-11-20T15:23:28;93048.06;;;14.01;81.10
33151;BME280;19508;42.578;23.416;2022-11-20T15:25:57;93062.69;;;14.00;82.02
33151;BME280;19508;42.578;23.416;2022-11-20T15:28:42;93079.47;;;14.21;81.04
33151;BME280;19508;42.578;23.416;2022-11-20T15:31:14;93066.09;;;14.10;79.95
33151;BME280;19508;42.578;23.416;2022-11-20T15:33:39;93065.34;;;14.05;79.55
33151;BME280;19508;42.578;23.416;2022-11-20T15:36:05;93086.50;;;14.03;79.38
33151;BME280;19508;42.578;23.416;2022-11-20T15:38:31;93089.75;;;14.00;78.87
33151;BME280;19508;42.578;23.416;2022-11-20T15:40:57;93084.94;;;13.97;78.81
33151;BME280;19508;42.578;23.416;2022-11-20T15:43:22;93096.28;;;13.99;78.16